sensor_id;sensor_type;location;lat;lon;timestamp;P1;durP1;ratioP1;P2;durP2;ratioP2
70635;SDS011;58206;47.310;19.502;2023-05-07T00:00:36;0.20;;;0.00;;
70635;SDS011;58206;47.310;19.502;2023-05-07T00:03:20;0.20;;;0.00;;
70635;SDS011;58206;47.310;19.502;2023-05-07T00:06:05;0.30;;;0.00;;
70635;SDS011;58206;47.310;19.502;2023-05-07T00:08:50;0.30;;;0.00;;
70635;SDS011;58206;47.310;19.502;2023-05-07T00:11:34;0.20;;;0.00;;
70635;SDS011;58206;47.310;19.502;2023-05-07T00:14:19;0.30;;;0.00;;
70635;SDS011;58206;47.310;19.502;2023-05-07T00:17:03;0.30;;;0.00;;
70635;SDS011;58206;47.310;19.502;2023-05-07T00:19:47;0.20;;;0.00;;
70635;SDS011;58206;47.310;19.502;2023-05-07T00:22:32;0.57;;;0.17;;
70635;SDS011;58206;47.310;19.502;2023-05-07T00:25:16;0.20;;;0.00;;
70635;SDS011;58206;47.310;19.502;2023-05-07T00:28:01;0.80;;;0.35;;
70635;SDS011;58206;47.310;19.502;2023-05-07T00:30:48;0.30;;;0.00;;
70635;SDS011;58206;47.310;19.502;2023-05-07T00:33:32;0.50;;;0.17;;
70635;SDS011;58206;47.310;19.502;2023-05-07T00:36:16;0.30;;;0.00;;
70635;SDS011;58206;47.310;19.502;2023-05-07T00:39:01;0.27;;;0.00;;
70635;SDS011;58206;47.310;19.502;2023-05-07T00:41:47;0.20;;;0.00;;
70635;SDS011;58206;47.310;19.502;2023-05-07T00:44:32;0.28;;;0.00;;
70635;SDS011;58206;47.310;19.502;2023-05-07T00:47:17;0.20;;;0.00;;
70635;SDS011;58206;47.310;19.502;2023-05-07T00:50:01;0.30;;;0.00;;
70635;SDS011;58206;47.310;19.502;2023-05-07T00:52:45;0.23;;;0.00;;
70635;SDS011;58206;47.310;19.502;2023-05-07T00:55:30;0.28;;;0.00;;
70635;SDS011;58206;47.310;19.502;2023-05-07T00:58:14;0.30;;;0.00;;
70635;SDS011;58206;47.310;19.502;2023-05-07T01:00:59;0.20;;;0.00;;
70635;SDS011;58206;47.310;19.502;2023-05-07T01:03:43;0.30;;;0.00;;
70635;SDS011;58206;47.310;19.502;2023-05-07T01:06:27;0.30;;;0.00;;
70635;SDS011;58206;47.310;19.502;2023-05-07T01:09:14;0.30;;;0.00;;
70635;SDS011;58206;47.310;19.502;2023-05-07T01:11:59;0.40;;;0.10;;
70635;SDS011;58206;47.310;19.502;2023-05-07T01:14:43;0.20;;;0.00;;
70635;SDS011;58206;47.310;19.502;2023-05-07T01:17:28;0.30;;;0.00;;
70635;SDS011;58206;47.310;19.502;2023-05-07T01:20:12;0.20;;;0.00;;
70635;SDS011;58206;47.310;19.502;2023-05-07T01:22:58;0.20;;;0.00;;
70635;SDS011;58206;47.310;19.502;2023-05-07T01:25:53;0.20;;;0.00;;
70635;SDS011;58206;47.310;19.502;2023-05-07T01:28:40;0.35;;;0.10;;
70635;SDS011;58206;47.310;19.502;2023-05-07T01:31:24;0.20;;;0.00;;
70635;SDS011;58206;47.310;19.502;2023-05-07T01:34:09;0.23;;;0.00;;
70635;SDS011;58206;47.310;19.502;2023-05-07T01:36:55;0.10;;;0.00;;
70635;SDS011;58206;47.310;19.502;2023-05-07T01:39:42;0.20;;;0.00;;
70635;SDS011;58206;47.310;19.502;2023-05-07T01:42:27;0.20;;;0.00;;
70635;SDS011;58206;47.310;19.502;2023-05-07T01:45:12;0.30;;;0.00;;
70635;SDS011;58206;47.310;19.502;2023-05-07T01:47:58;0.13;;;0.00;;
70635;SDS011;58206;47.310;19.502;2023-05-07T01:50:42;0.20;;;0.00;;
70635;SDS011;58206;47.310;19.502;2023-05-07T01:53:27;0.20;;;0.00;;
70635;SDS011;58206;47.310;19.502;2023-05-07T01:56:12;0.20;;;0.00;;
70635;SDS011;58206;47.310;19.502;2023-05-07T01:58:59;0.20;;;0.00;;
70635;SDS011;58206;47.310;19.502;2023-05-07T02:01:43;0.10;;;0.00;;
70635;SDS011;58206;47.310;19.502;2023-05-07T02:04:28;0.20;;;0.00;;
70635;SDS011;58206;47.310;19.502;2023-05-07T02:07:13;0.20;;;0.00;;
70635;SDS011;58206;47.310;19.502;2023-05-07T02:09:57;0.15;;;0.00;;
70635;SDS011;58206;47.310;19.502;2023-05-07T02:12:42;1.10;;;0.40;;
70635;SDS011;58206;47.310;19.502;2023-05-07T02:15:26;0.20;;;0.00;;
70635;SDS011;58206;47.310;19.502;2023-05-07T02:18:11;0.20;;;0.00;;
70635;SDS011;58206;47.310;19.502;2023-05-07T02:20:55;0.15;;;0.00;;
70635;SDS011;58206;47.310;19.502;2023-05-07T02:23:40;0.20;;;0.00;;
70635;SDS011;58206;47.310;19.502;2023-05-07T02:26:24;0.20;;;0.00;;
70635;SDS011;58206;47.310;19.502;2023-05-07T02:29:10;0.20;;;0.00;;
70635;SDS011;58206;47.310;19.502;2023-05-07T02:31:55;0.20;;;0.00;;
70635;SDS011;58206;47.310;19.502;2023-05-07T02:34:40;0.20;;;0.00;;
70635;SDS011;58206;47.310;19.502;2023-05-07T02:37:24;0.10;;;0.00;;
70635;SDS011;58206;47.310;19.502;2023-05-07T02:40:10;0.20;;;0.00;;
70635;SDS011;58206;47.310;19.502;2023-05-07T02:42:55;0.10;;;0.00;;
70635;SDS011;58206;47.310;19.502;2023-05-07T02:45:39;0.20;;;0.00;;
70635;SDS011;58206;47.310;19.502;2023-05-07T02:48:25;0.20;;;0.00;;
70635;SDS011;58206;47.310;19.502;2023-05-07T02:51:10;0.10;;;0.00;;
70635;SDS011;58206;47.310;19.502;2023-05-07T02:53:57;0.30;;;0.00;;
70635;SDS011;58206;47.310;19.502;2023-05-07T02:56:41;0.10;;;0.00;;
70635;SDS011;58206;47.310;19.502;2023-05-07T02:59:25;0.20;;;0.00;;
70635;SDS011;58206;47.310;19.502;2023-05-07T03:02:10;0.20;;;0.00;;
70635;SDS011;58206;47.310;19.502;2023-05-07T03:04:55;0.20;;;0.05;;
70635;SDS011;58206;47.310;19.502;2023-05-07T03:07:39;0.20;;;0.00;;
70635;SDS011;58206;47.310;19.502;2023-05-07T03:10:23;0.10;;;0.00;;
70635;SDS011;58206;47.310;19.502;2023-05-07T03:13:08;0.10;;;0.00;;
70635;SDS011;58206;47.310;19.502;2023-05-07T03:15:53;0.20;;;0.00;;
70635;SDS011;58206;47.310;19.502;2023-05-07T03:18:38;0.13;;;0.00;;
70635;SDS011;58206;47.310;19.502;2023-05-07T03:21:22;0.15;;;0.00;;
70635;SDS011;58206;47.310;19.502;2023-05-07T03:24:07;0.07;;;0.00;;
70635;SDS011;58206;47.310;19.502;2023-05-07T03:26:51;0.85;;;0.65;;
70635;SDS011;58206;47.310;19.502;2023-05-07T03:29:35;0.20;;;0.03;;
70635;SDS011;58206;47.310;19.502;2023-05-07T03:32:20;0.13;;;0.00;;
70635;SDS011;58206;47.310;19.502;2023-05-07T03:35:05;0.30;;;0.00;;
70635;SDS011;58206;47.310;19.502;2023-05-07T03:37:50;0.10;;;0.00;;
70635;SDS011;58206;47.310;19.502;2023-05-07T03:40:35;0.20;;;0.00;;
70635;SDS011;58206;47.310;19.502;2023-05-07T03:43:21;0.10;;;0.00;;
70635;SDS011;58206;47.310;19.502;2023-05-07T03:46:12;0.40;;;0.20;;
70635;SDS011;58206;47.310;19.502;2023-05-07T03:48:57;0.28;;;0.00;;
70635;SDS011;58206;47.310;19.502;2023-05-07T03:51:42;0.40;;;0.20;;
70635;SDS011;58206;47.310;19.502;2023-05-07T03:54:27;0.13;;;0.00;;
70635;SDS011;58206;47.310;19.502;2023-05-07T03:57:12;0.20;;;0.00;;
70635;SDS011;58206;47.310;19.502;2023-05-07T03:59:57;0.10;;;0.00;;
70635;SDS011;58206;47.310;19.502;2023-05-07T04:02:41;0.30;;;0.00;;
70635;SDS011;58206;47.310;19.502;2023-05-07T04:05:25;0.30;;;0.10;;
70635;SDS011;58206;47.310;19.502;2023-05-07T04:08:15;0.20;;;0.10;;
70635;SDS011;58206;47.310;19.502;2023-05-07T04:11:04;0.20;;;0.00;;
70635;SDS011;58206;47.310;19.502;2023-05-07T04:13:50;0.10;;;0.00;;
70635;SDS011;58206;47.310;19.502;2023-05-07T04:16:38;0.30;;;0.00;;
70635;SDS011;58206;47.310;19.502;2023-05-07T04:19:24;0.20;;;0.00;;
70635;SDS011;58206;47.310;19.502;2023-05-07T04:22:11;0.20;;;0.03;;
70635;SDS011;58206;47.310;19.502;2023-05-07T04:24:56;0.40;;;0.10;;
70635;SDS011;58206;47.310;19.502;2023-05-07T04:27:40;0.30;;;0.00;;
70635;SDS011;58206;47.310;19.502;2023-05-07T04:30:24;0.30;;;0.00;;
70635;SDS011;58206;47.310;19.502;2023-05-07T04:33:09;0.20;;;0.00;;
70635;SDS011;58206;47.310;19.502;2023-05-07T04:35:56;0.30;;;0.00;;
70635;SDS011;58206;47.310;19.502;2023-05-07T04:38:40;0.30;;;0.00;;
70635;SDS011;58206;47.310;19.502;2023-05-07T04:41:25;0.30;;;0.00;;
70635;SDS011;58206;47.310;19.502;2023-05-07T04:44:09;0.30;;;0.00;;
70635;SDS011;58206;47.310;19.502;2023-05-07T04:46:55;0.30;;;0.00;;
70635;SDS011;58206;47.310;19.502;2023-05-07T04:49:40;0.22;;;0.00;;
70635;SDS011;58206;47.310;19.502;2023-05-07T04:52:26;0.40;;;0.10;;
70635;SDS011;58206;47.310;19.502;2023-05-07T04:55:11;0.30;;;0.10;;
70635;SDS011;58206;47.310;19.502;2023-05-07T04:57:58;0.30;;;0.00;;
70635;SDS011;58206;47.310;19.502;2023-05-07T05:00:45;0.30;;;0.00;;
70635;SDS011;58206;47.310;19.502;2023-05-07T05:03:29;0.30;;;0.00;;
70635;SDS011;58206;47.310;19.502;2023-05-07T05:06:14;0.30;;;0.03;;
70635;SDS011;58206;47.310;19.502;2023-05-07T05:09:00;0.30;;;0.00;;
70635;SDS011;58206;47.310;19.502;2023-05-07T05:11:47;0.30;;;0.00;;
70635;SDS011;58206;47.310;19.502;2023-05-07T05:14:32;0.40;;;0.10;;
70635;SDS011;58206;47.310;19.502;2023-05-07T05:17:18;0.30;;;0.10;;
70635;SDS011;58206;47.310;19.502;2023-05-07T05:20:03;0.30;;;0.10;;
70635;SDS011;58206;47.310;19.502;2023-05-07T05:22:48;0.30;;;0.10;;
70635;SDS011;58206;47.310;19.502;2023-05-07T05:25:33;0.20;;;0.10;;
70635;SDS011;58206;47.310;19.502;2023-05-07T05:28:18;0.40;;;0.20;;
70635;SDS011;58206;47.310;19.502;2023-05-07T05:31:03;0.30;;;0.10;;
70635;SDS011;58206;47.310;19.502;2023-05-07T05:33:51;0.30;;;0.10;;
70635;SDS011;58206;47.310;19.502;2023-05-07T05:36:35;0.32;;;0.10;;
70635;SDS011;58206;47.310;19.502;2023-05-07T05:39:20;0.30;;;0.10;;
70635;SDS011;58206;47.310;19.502;2023-05-07T05:42:05;0.30;;;0.10;;
70635;SDS011;58206;47.310;19.502;2023-05-07T05:44:53;0.40;;;0.10;;
70635;SDS011;58206;47.310;19.502;2023-05-07T05:47:38;0.35;;;0.10;;
70635;SDS011;58206;47.310;19.502;2023-05-07T05:50:24;0.30;;;0.10;;
70635;SDS011;58206;47.310;19.502;2023-05-07T05:53:10;0.20;;;0.10;;
70635;SDS011;58206;47.310;19.502;2023-05-07T05:55:54;0.30;;;0.10;;
70635;SDS011;58206;47.310;19.502;2023-05-07T05:58:39;0.30;;;0.10;;
70635;SDS011;58206;47.310;19.502;2023-05-07T06:01:25;0.40;;;0.10;;
70635;SDS011;58206;47.310;19.502;2023-05-07T06:04:11;0.30;;;0.10;;
70635;SDS011;58206;47.310;19.502;2023-05-07T06:06:56;0.30;;;0.10;;
70635;SDS011;58206;47.310;19.502;2023-05-07T06:09:42;0.30;;;0.10;;
70635;SDS011;58206;47.310;19.502;2023-05-07T06:12:27;0.30;;;0.10;;
70635;SDS011;58206;47.310;19.502;2023-05-07T06:15:11;0.50;;;0.20;;
70635;SDS011;58206;47.310;19.502;2023-05-07T06:17:57;0.30;;;0.10;;
70635;SDS011;58206;47.310;19.502;2023-05-07T06:20:41;0.40;;;0.10;;
70635;SDS011;58206;47.310;19.502;2023-05-07T06:23:31;0.40;;;0.10;;
70635;SDS011;58206;47.310;19.502;2023-05-07T06:26:17;0.30;;;0.10;;
70635;SDS011;58206;47.310;19.502;2023-05-07T06:29:04;0.40;;;0.10;;
70635;SDS011;58206;47.310;19.502;2023-05-07T06:31:48;0.40;;;0.10;;
70635;SDS011;58206;47.310;19.502;2023-05-07T06:34:33;0.40;;;0.20;;
70635;SDS011;58206;47.310;19.502;2023-05-07T06:37:17;0.43;;;0.10;;
70635;SDS011;58206;47.310;19.502;2023-05-07T06:40:28;0.50;;;0.10;;
70635;SDS011;58206;47.310;19.502;2023-05-07T06:43:12;0.45;;;0.15;;
70635;SDS011;58206;47.310;19.502;2023-05-07T06:46:05;0.40;;;0.10;;
70635;SDS011;58206;47.310;19.502;2023-05-07T06:48:52;0.50;;;0.10;;
70635;SDS011;58206;47.310;19.502;2023-05-07T06:51:37;0.40;;;0.10;;
70635;SDS011;58206;47.310;19.502;2023-05-07T06:54:22;0.90;;;0.43;;
70635;SDS011;58206;47.310;19.502;2023-05-07T06:57:06;0.70;;;0.20;;
70635;SDS011;58206;47.310;19.502;2023-05-07T06:59:51;0.60;;;0.15;;
70635;SDS011;58206;47.310;19.502;2023-05-07T07:02:37;0.60;;;0.20;;
70635;SDS011;58206;47.310;19.502;2023-05-07T07:05:22;0.80;;;0.20;;
70635;SDS011;58206;47.310;19.502;2023-05-07T07:08:06;1.20;;;0.55;;
70635;SDS011;58206;47.310;19.502;2023-05-07T07:10:51;0.70;;;0.20;;
70635;SDS011;58206;47.310;19.502;2023-05-07T07:13:35;0.63;;;0.20;;
70635;SDS011;58206;47.310;19.502;2023-05-07T07:16:21;0.70;;;0.20;;
70635;SDS011;58206;47.310;19.502;2023-05-07T07:19:06;0.90;;;0.30;;
70635;SDS011;58206;47.310;19.502;2023-05-07T07:21:50;0.80;;;0.20;;
70635;SDS011;58206;47.310;19.502;2023-05-07T07:24:35;0.70;;;0.20;;
70635;SDS011;58206;47.310;19.502;2023-05-07T07:27:22;0.60;;;0.10;;
70635;SDS011;58206;47.310;19.502;2023-05-07T07:30:07;0.82;;;0.22;;
70635;SDS011;58206;47.310;19.502;2023-05-07T07:32:54;0.80;;;0.20;;
70635;SDS011;58206;47.310;19.502;2023-05-07T07:35:41;0.60;;;0.20;;
70635;SDS011;58206;47.310;19.502;2023-05-07T07:38:26;0.90;;;0.30;;
70635;SDS011;58206;47.310;19.502;2023-05-07T07:41:10;1.10;;;0.40;;
70635;SDS011;58206;47.310;19.502;2023-05-07T07:43:55;0.82;;;0.30;;
70635;SDS011;58206;47.310;19.502;2023-05-07T07:46:40;2.03;;;0.87;;
70635;SDS011;58206;47.310;19.502;2023-05-07T07:49:25;1.02;;;0.60;;
70635;SDS011;58206;47.310;19.502;2023-05-07T07:52:10;1.25;;;0.55;;
70635;SDS011;58206;47.310;19.502;2023-05-07T07:54:56;0.60;;;0.20;;
70635;SDS011;58206;47.310;19.502;2023-05-07T07:57:41;0.70;;;0.20;;
70635;SDS011;58206;47.310;19.502;2023-05-07T08:00:26;0.60;;;0.20;;
70635;SDS011;58206;47.310;19.502;2023-05-07T08:03:13;1.50;;;0.60;;
70635;SDS011;58206;47.310;19.502;2023-05-07T08:06:03;1.85;;;0.80;;
70635;SDS011;58206;47.310;19.502;2023-05-07T08:08:49;1.20;;;0.50;;
70635;SDS011;58206;47.310;19.502;2023-05-07T08:11:34;2.83;;;1.25;;
70635;SDS011;58206;47.310;19.502;2023-05-07T08:14:20;1.77;;;0.70;;
70635;SDS011;58206;47.310;19.502;2023-05-07T08:17:06;2.50;;;1.20;;
70635;SDS011;58206;47.310;19.502;2023-05-07T08:19:51;2.03;;;0.82;;
70635;SDS011;58206;47.310;19.502;2023-05-07T08:22:36;2.53;;;1.10;;
70635;SDS011;58206;47.310;19.502;2023-05-07T08:25:21;2.13;;;0.88;;
70635;SDS011;58206;47.310;19.502;2023-05-07T08:28:06;1.33;;;0.60;;
70635;SDS011;58206;47.310;19.502;2023-05-07T08:30:50;0.70;;;0.20;;
70635;SDS011;58206;47.310;19.502;2023-05-07T08:33:35;0.93;;;0.43;;
70635;SDS011;58206;47.310;19.502;2023-05-07T08:36:20;1.33;;;0.50;;
70635;SDS011;58206;47.310;19.502;2023-05-07T08:39:04;0.80;;;0.20;;
70635;SDS011;58206;47.310;19.502;2023-05-07T08:41:49;0.60;;;0.20;;
70635;SDS011;58206;47.310;19.502;2023-05-07T08:44:36;0.70;;;0.20;;
70635;SDS011;58206;47.310;19.502;2023-05-07T08:47:23;1.50;;;0.82;;
70635;SDS011;58206;47.310;19.502;2023-05-07T08:50:12;1.00;;;0.40;;
70635;SDS011;58206;47.310;19.502;2023-05-07T08:52:58;0.80;;;0.30;;
70635;SDS011;58206;47.310;19.502;2023-05-07T08:55:45;0.70;;;0.20;;
70635;SDS011;58206;47.310;19.502;2023-05-07T08:58:30;0.60;;;0.20;;
70635;SDS011;58206;47.310;19.502;2023-05-07T09:01:15;0.55;;;0.20;;
70635;SDS011;58206;47.310;19.502;2023-05-07T09:04:01;0.57;;;0.20;;
70635;SDS011;58206;47.310;19.502;2023-05-07T09:06:47;3.33;;;1.58;;
70635;SDS011;58206;47.310;19.502;2023-05-07T09:09:33;0.67;;;0.40;;
70635;SDS011;58206;47.310;19.502;2023-05-07T09:12:18;0.50;;;0.20;;
70635;SDS011;58206;47.310;19.502;2023-05-07T09:15:03;0.82;;;0.38;;
70635;SDS011;58206;47.310;19.502;2023-05-07T09:17:49;0.40;;;0.10;;
70635;SDS011;58206;47.310;19.502;2023-05-07T09:20:35;0.50;;;0.17;;
70635;SDS011;58206;47.310;19.502;2023-05-07T09:23:20;0.60;;;0.30;;
70635;SDS011;58206;47.310;19.502;2023-05-07T09:26:06;0.60;;;0.10;;
70635;SDS011;58206;47.310;19.502;2023-05-07T09:28:56;0.40;;;0.10;;
70635;SDS011;58206;47.310;19.502;2023-05-07T09:31:41;0.40;;;0.10;;
70635;SDS011;58206;47.310;19.502;2023-05-07T09:34:29;0.35;;;0.10;;
70635;SDS011;58206;47.310;19.502;2023-05-07T09:37:14;0.40;;;0.10;;
70635;SDS011;58206;47.310;19.502;2023-05-07T09:39:59;0.40;;;0.10;;
70635;SDS011;58206;47.310;19.502;2023-05-07T09:42:45;0.60;;;0.30;;
70635;SDS011;58206;47.310;19.502;2023-05-07T09:45:32;0.40;;;0.10;;
70635;SDS011;58206;47.310;19.502;2023-05-07T09:48:16;0.32;;;0.10;;
70635;SDS011;58206;47.310;19.502;2023-05-07T09:51:02;0.30;;;0.10;;
70635;SDS011;58206;47.310;19.502;2023-05-07T09:53:50;0.63;;;0.30;;
70635;SDS011;58206;47.310;19.502;2023-05-07T09:56:35;0.43;;;0.10;;
70635;SDS011;58206;47.310;19.502;2023-05-07T09:59:22;0.70;;;0.20;;
70635;SDS011;58206;47.310;19.502;2023-05-07T10:02:07;0.63;;;0.15;;
70635;SDS011;58206;47.310;19.502;2023-05-07T10:05:00;0.87;;;0.23;;
70635;SDS011;58206;47.310;19.502;2023-05-07T10:07:49;0.50;;;0.10;;
70635;SDS011;58206;47.310;19.502;2023-05-07T10:10:35;0.60;;;0.20;;
70635;SDS011;58206;47.310;19.502;2023-05-07T10:13:20;0.50;;;0.10;;
70635;SDS011;58206;47.310;19.502;2023-05-07T10:16:08;0.50;;;0.20;;
70635;SDS011;58206;47.310;19.502;2023-05-07T10:18:59;0.60;;;0.20;;
70635;SDS011;58206;47.310;19.502;2023-05-07T10:21:48;0.60;;;0.20;;
70635;SDS011;58206;47.310;19.502;2023-05-07T10:24:35;0.70;;;0.20;;
70635;SDS011;58206;47.310;19.502;2023-05-07T10:27:22;0.70;;;0.20;;
70635;SDS011;58206;47.310;19.502;2023-05-07T10:32:56;0.70;;;0.20;;
70635;SDS011;58206;47.310;19.502;2023-05-07T10:35:50;0.60;;;0.20;;
70635;SDS011;58206;47.310;19.502;2023-05-07T10:38:35;0.68;;;0.15;;
70635;SDS011;58206;47.310;19.502;2023-05-07T10:41:20;0.55;;;0.13;;
70635;SDS011;58206;47.310;19.502;2023-05-07T10:44:06;0.80;;;0.40;;
70635;SDS011;58206;47.310;19.502;2023-05-07T10:47:09;0.70;;;0.20;;
70635;SDS011;58206;47.310;19.502;2023-05-07T10:52:45;0.50;;;0.10;;
70635;SDS011;58206;47.310;19.502;2023-05-07T10:56:23;0.47;;;0.10;;
70635;SDS011;58206;47.310;19.502;2023-05-07T11:02:06;0.50;;;0.10;;
70635;SDS011;58206;47.310;19.502;2023-05-07T11:08:02;0.40;;;0.10;;
70635;SDS011;58206;47.310;19.502;2023-05-07T11:10:54;0.50;;;0.13;;
70635;SDS011;58206;47.310;19.502;2023-05-07T11:13:59;0.43;;;0.10;;
70635;SDS011;58206;47.310;19.502;2023-05-07T11:17:02;0.50;;;0.20;;
70635;SDS011;58206;47.310;19.502;2023-05-07T11:19:53;0.40;;;0.10;;
70635;SDS011;58206;47.310;19.502;2023-05-07T11:23:01;0.52;;;0.20;;
70635;SDS011;58206;47.310;19.502;2023-05-07T11:26:00;1.30;;;0.75;;
70635;SDS011;58206;47.310;19.502;2023-05-07T11:28:44;0.40;;;0.15;;
70635;SDS011;58206;47.310;19.502;2023-05-07T11:31:29;0.40;;;0.10;;
70635;SDS011;58206;47.310;19.502;2023-05-07T11:34:20;0.52;;;0.20;;
70635;SDS011;58206;47.310;19.502;2023-05-07T11:37:05;0.40;;;0.10;;
70635;SDS011;58206;47.310;19.502;2023-05-07T11:40:03;0.60;;;0.20;;
70635;SDS011;58206;47.310;19.502;2023-05-07T11:42:48;0.60;;;0.10;;
70635;SDS011;58206;47.310;19.502;2023-05-07T11:45:32;0.70;;;0.20;;
70635;SDS011;58206;47.310;19.502;2023-05-07T11:48:18;0.60;;;0.17;;
70635;SDS011;58206;47.310;19.502;2023-05-07T11:51:04;1.35;;;0.65;;
70635;SDS011;58206;47.310;19.502;2023-05-07T11:53:50;0.70;;;0.20;;
70635;SDS011;58206;47.310;19.502;2023-05-07T11:56:35;0.60;;;0.20;;
70635;SDS011;58206;47.310;19.502;2023-05-07T11:59:20;0.73;;;0.33;;
70635;SDS011;58206;47.310;19.502;2023-05-07T12:02:04;0.57;;;0.20;;
70635;SDS011;58206;47.310;19.502;2023-05-07T12:04:48;1.05;;;0.90;;
70635;SDS011;58206;47.310;19.502;2023-05-07T12:07:33;0.60;;;0.10;;
70635;SDS011;58206;47.310;19.502;2023-05-07T12:10:18;0.60;;;0.20;;
70635;SDS011;58206;47.310;19.502;2023-05-07T12:13:08;0.67;;;0.10;;
70635;SDS011;58206;47.310;19.502;2023-05-07T12:15:57;0.60;;;0.30;;
70635;SDS011;58206;47.310;19.502;2023-05-07T12:18:42;0.50;;;0.10;;
70635;SDS011;58206;47.310;19.502;2023-05-07T12:21:26;0.60;;;0.20;;
70635;SDS011;58206;47.310;19.502;2023-05-07T12:24:23;0.65;;;0.20;;
70635;SDS011;58206;47.310;19.502;2023-05-07T12:27:08;0.70;;;0.27;;
70635;SDS011;58206;47.310;19.502;2023-05-07T12:29:53;0.60;;;0.20;;
70635;SDS011;58206;47.310;19.502;2023-05-07T12:32:38;0.60;;;0.20;;
70635;SDS011;58206;47.310;19.502;2023-05-07T12:35:40;0.68;;;0.20;;
70635;SDS011;58206;47.310;19.502;2023-05-07T12:38:25;0.65;;;0.20;;
70635;SDS011;58206;47.310;19.502;2023-05-07T12:41:10;1.00;;;0.50;;
70635;SDS011;58206;47.310;19.502;2023-05-07T12:43:56;0.65;;;0.20;;
70635;SDS011;58206;47.310;19.502;2023-05-07T12:46:40;0.60;;;0.15;;
70635;SDS011;58206;47.310;19.502;2023-05-07T12:49:25;0.50;;;0.10;;
70635;SDS011;58206;47.310;19.502;2023-05-07T12:52:09;0.50;;;0.10;;
70635;SDS011;58206;47.310;19.502;2023-05-07T12:54:55;0.60;;;0.20;;
70635;SDS011;58206;47.310;19.502;2023-05-07T12:57:43;0.60;;;0.20;;
70635;SDS011;58206;47.310;19.502;2023-05-07T13:00:36;0.40;;;0.10;;
70635;SDS011;58206;47.310;19.502;2023-05-07T13:03:21;0.50;;;0.10;;
70635;SDS011;58206;47.310;19.502;2023-05-07T13:06:08;0.40;;;0.20;;
70635;SDS011;58206;47.310;19.502;2023-05-07T13:08:56;0.40;;;0.10;;
70635;SDS011;58206;47.310;19.502;2023-05-07T13:11:41;0.30;;;0.10;;
70635;SDS011;58206;47.310;19.502;2023-05-07T13:14:25;0.40;;;0.10;;
70635;SDS011;58206;47.310;19.502;2023-05-07T13:17:10;0.55;;;0.30;;
70635;SDS011;58206;47.310;19.502;2023-05-07T13:19:54;0.47;;;0.20;;
70635;SDS011;58206;47.310;19.502;2023-05-07T13:22:39;0.40;;;0.10;;
70635;SDS011;58206;47.310;19.502;2023-05-07T13:25:23;0.30;;;0.10;;
70635;SDS011;58206;47.310;19.502;2023-05-07T13:28:08;0.30;;;0.10;;
70635;SDS011;58206;47.310;19.502;2023-05-07T13:30:52;0.30;;;0.10;;
70635;SDS011;58206;47.310;19.502;2023-05-07T13:33:37;0.40;;;0.10;;
70635;SDS011;58206;47.310;19.502;2023-05-07T13:36:21;0.30;;;0.10;;
70635;SDS011;58206;47.310;19.502;2023-05-07T13:39:06;0.77;;;0.65;;
70635;SDS011;58206;47.310;19.502;2023-05-07T13:41:50;0.30;;;0.10;;
70635;SDS011;58206;47.310;19.502;2023-05-07T13:44:35;0.80;;;0.73;;
70635;SDS011;58206;47.310;19.502;2023-05-07T13:47:19;0.82;;;0.57;;
70635;SDS011;58206;47.310;19.502;2023-05-07T13:50:03;0.73;;;0.30;;
70635;SDS011;58206;47.310;19.502;2023-05-07T13:52:48;0.43;;;0.20;;
70635;SDS011;58206;47.310;19.502;2023-05-07T13:55:36;0.30;;;0.10;;
70635;SDS011;58206;47.310;19.502;2023-05-07T13:58:20;0.30;;;0.00;;
70635;SDS011;58206;47.310;19.502;2023-05-07T14:01:04;0.30;;;0.00;;
70635;SDS011;58206;47.310;19.502;2023-05-07T14:03:49;0.20;;;0.00;;
70635;SDS011;58206;47.310;19.502;2023-05-07T14:06:33;0.30;;;0.10;;
70635;SDS011;58206;47.310;19.502;2023-05-07T14:09:18;0.30;;;0.10;;
70635;SDS011;58206;47.310;19.502;2023-05-07T14:12:02;0.30;;;0.10;;
70635;SDS011;58206;47.310;19.502;2023-05-07T14:14:47;0.40;;;0.10;;
70635;SDS011;58206;47.310;19.502;2023-05-07T14:17:31;0.30;;;0.10;;
70635;SDS011;58206;47.310;19.502;2023-05-07T14:20:16;0.40;;;0.10;;
70635;SDS011;58206;47.310;19.502;2023-05-07T14:23:00;0.30;;;0.10;;
70635;SDS011;58206;47.310;19.502;2023-05-07T14:25:45;0.40;;;0.10;;
70635;SDS011;58206;47.310;19.502;2023-05-07T14:28:31;0.40;;;0.10;;
70635;SDS011;58206;47.310;19.502;2023-05-07T14:31:16;0.40;;;0.10;;
70635;SDS011;58206;47.310;19.502;2023-05-07T14:34:00;0.50;;;0.20;;
70635;SDS011;58206;47.310;19.502;2023-05-07T14:36:44;0.30;;;0.10;;
70635;SDS011;58206;47.310;19.502;2023-05-07T14:39:29;0.57;;;0.25;;
70635;SDS011;58206;47.310;19.502;2023-05-07T14:42:13;0.30;;;0.10;;
70635;SDS011;58206;47.310;19.502;2023-05-07T14:44:58;0.40;;;0.10;;
70635;SDS011;58206;47.310;19.502;2023-05-07T14:47:42;0.30;;;0.10;;
70635;SDS011;58206;47.310;19.502;2023-05-07T14:50:26;0.40;;;0.10;;
70635;SDS011;58206;47.310;19.502;2023-05-07T14:53:11;0.30;;;0.10;;
70635;SDS011;58206;47.310;19.502;2023-05-07T14:55:55;0.50;;;0.10;;
70635;SDS011;58206;47.310;19.502;2023-05-07T14:58:46;0.30;;;0.10;;
70635;SDS011;58206;47.310;19.502;2023-05-07T15:01:31;0.30;;;0.10;;
70635;SDS011;58206;47.310;19.502;2023-05-07T15:04:15;0.63;;;0.30;;
70635;SDS011;58206;47.310;19.502;2023-05-07T15:07:00;0.50;;;0.20;;
70635;SDS011;58206;47.310;19.502;2023-05-07T15:09:45;0.40;;;0.10;;
70635;SDS011;58206;47.310;19.502;2023-05-07T15:12:30;0.40;;;0.10;;
70635;SDS011;58206;47.310;19.502;2023-05-07T15:15:14;0.43;;;0.10;;
70635;SDS011;58206;47.310;19.502;2023-05-07T15:17:59;0.30;;;0.10;;
70635;SDS011;58206;47.310;19.502;2023-05-07T15:20:46;0.40;;;0.10;;
70635;SDS011;58206;47.310;19.502;2023-05-07T15:23:31;0.40;;;0.10;;
70635;SDS011;58206;47.310;19.502;2023-05-07T15:26:15;0.30;;;0.10;;
70635;SDS011;58206;47.310;19.502;2023-05-07T15:29:00;0.40;;;0.10;;
70635;SDS011;58206;47.310;19.502;2023-05-07T15:31:47;0.40;;;0.20;;
70635;SDS011;58206;47.310;19.502;2023-05-07T15:34:31;0.40;;;0.10;;
70635;SDS011;58206;47.310;19.502;2023-05-07T15:37:15;0.30;;;0.10;;
70635;SDS011;58206;47.310;19.502;2023-05-07T15:40:00;0.47;;;0.10;;
70635;SDS011;58206;47.310;19.502;2023-05-07T15:42:46;0.38;;;0.10;;
70635;SDS011;58206;47.310;19.502;2023-05-07T15:45:31;0.38;;;0.10;;
70635;SDS011;58206;47.310;19.502;2023-05-07T15:48:15;0.82;;;0.68;;
70635;SDS011;58206;47.310;19.502;2023-05-07T15:51:00;0.63;;;0.32;;
70635;SDS011;58206;47.310;19.502;2023-05-07T15:53:45;0.33;;;0.10;;
70635;SDS011;58206;47.310;19.502;2023-05-07T15:56:29;0.40;;;0.10;;
70635;SDS011;58206;47.310;19.502;2023-05-07T15:59:16;0.30;;;0.10;;
70635;SDS011;58206;47.310;19.502;2023-05-07T16:02:01;0.40;;;0.10;;
70635;SDS011;58206;47.310;19.502;2023-05-07T16:04:45;0.30;;;0.10;;
70635;SDS011;58206;47.310;19.502;2023-05-07T16:07:30;0.40;;;0.10;;
70635;SDS011;58206;47.310;19.502;2023-05-07T16:10:14;0.30;;;0.10;;
70635;SDS011;58206;47.310;19.502;2023-05-07T16:12:59;0.40;;;0.10;;
70635;SDS011;58206;47.310;19.502;2023-05-07T16:15:44;0.38;;;0.13;;
70635;SDS011;58206;47.310;19.502;2023-05-07T16:18:29;0.43;;;0.10;;
70635;SDS011;58206;47.310;19.502;2023-05-07T16:21:13;0.20;;;0.10;;
70635;SDS011;58206;47.310;19.502;2023-05-07T16:24:01;0.30;;;0.10;;
70635;SDS011;58206;47.310;19.502;2023-05-07T16:26:45;0.30;;;0.10;;
70635;SDS011;58206;47.310;19.502;2023-05-07T16:29:30;0.30;;;0.10;;
70635;SDS011;58206;47.310;19.502;2023-05-07T16:32:14;0.40;;;0.10;;
70635;SDS011;58206;47.310;19.502;2023-05-07T16:34:58;0.30;;;0.10;;